createdAt,value
2019-02-15T00:00:52.487Z,5.60
2019-02-15T00:03:21.728Z,4.10
2019-02-15T00:05:50.767Z,4.90
2019-02-15T00:08:22.606Z,4.40
2019-02-15T00:10:51.847Z,4.10
2019-02-15T00:13:21.386Z,4.53
2019-02-15T00:15:51.386Z,4.43
2019-02-15T00:18:22.028Z,5.07
2019-02-15T00:20:54.090Z,5.47
2019-02-15T00:23:23.293Z,4.70
2019-02-15T00:25:52.450Z,4.70
2019-02-15T00:28:22.934Z,4.67
2019-02-15T00:30:57.046Z,5.33
2019-02-15T00:33:27.826Z,4.67
2019-02-15T00:35:57.146Z,4.87
2019-02-15T00:38:26.207Z,4.70
2019-02-15T00:40:55.714Z,5.00
2019-02-15T00:43:24.970Z,4.90
2019-02-15T00:45:58.887Z,4.83
2019-02-15T00:48:29.527Z,4.90
2019-02-15T00:51:00.245Z,5.10
2019-02-15T00:56:30.786Z,6.63
2019-02-15T00:59:31.587Z,8.70
2019-02-15T01:02:04.314Z,10.43
2019-02-15T01:04:44.026Z,9.20
2019-02-15T01:07:26.788Z,6.40
2019-02-15T01:10:03.387Z,5.60
2019-02-15T01:12:36.916Z,5.70
2019-02-15T01:15:08.886Z,4.97
2019-02-15T01:17:38.006Z,6.20
2019-02-15T01:20:09.948Z,5.47
2019-02-15T01:22:39.097Z,5.30
2019-02-15T01:25:08.587Z,4.23
2019-02-15T01:27:45.186Z,5.37
2019-02-15T01:30:30.587Z,5.00
2019-02-15T01:33:03.869Z,5.63
2019-02-15T01:35:53.686Z,5.87
2019-02-15T01:38:30.407Z,6.63
2019-02-15T01:41:01.206Z,4.03
2019-02-15T01:43:40.195Z,8.30
2019-02-15T01:46:15.408Z,6.67
2019-02-15T01:48:44.466Z,5.80
2019-02-15T01:51:13.586Z,3.60
2019-02-15T01:53:54.986Z,4.33
2019-02-15T01:56:24.146Z,4.70
2019-02-15T01:58:53.146Z,6.10
2019-02-15T02:01:23.910Z,5.70
2019-02-15T02:06:28.090Z,7.63
2019-02-15T02:08:57.212Z,5.97
2019-02-15T02:11:26.387Z,7.40
2019-02-15T02:13:55.555Z,6.40
2019-02-15T02:16:24.573Z,6.90
2019-02-15T02:18:53.871Z,7.93
2019-02-15T02:21:22.972Z,8.57
2019-02-15T02:23:53.341Z,8.83
2019-02-15T02:26:22.551Z,9.80
2019-02-15T02:28:51.672Z,9.97
2019-02-15T02:31:21.172Z,10.80
2019-02-15T02:33:53.409Z,10.50
2019-02-15T02:36:22.667Z,11.73
2019-02-15T02:38:51.672Z,10.83
2019-02-15T02:41:20.749Z,10.97
2019-02-15T02:43:59.390Z,10.97
2019-02-15T02:46:22.007Z,11.20
2019-02-15T02:48:51.267Z,10.73
2019-02-15T02:51:20.326Z,9.53
2019-02-15T02:53:49.507Z,9.67
2019-02-15T02:56:18.590Z,9.93
2019-02-15T02:58:47.706Z,10.13
2019-02-15T03:01:16.897Z,8.13
2019-02-15T03:03:51.447Z,6.97
2019-02-15T03:06:20.527Z,5.33
2019-02-15T03:08:49.772Z,5.33
2019-02-15T03:11:18.987Z,5.40
2019-02-15T03:13:48.327Z,4.80
2019-02-15T03:16:17.428Z,4.03
2019-02-15T03:18:46.847Z,3.53
2019-02-15T03:21:19.479Z,3.97
2019-02-15T03:23:50.728Z,4.13
2019-02-15T03:26:21.649Z,3.80
2019-02-15T03:28:54.172Z,3.90
2019-02-15T03:31:23.168Z,3.73
2019-02-15T03:33:54.928Z,4.37
2019-02-15T03:36:37.467Z,4.30
2019-02-15T03:39:27.086Z,3.80
2019-02-15T03:41:56.167Z,4.17
2019-02-15T03:44:25.410Z,3.83
2019-02-15T03:46:54.528Z,4.50
2019-02-15T03:49:23.545Z,4.83
2019-02-15T03:51:53.046Z,4.37
2019-02-15T03:54:22.528Z,4.60
2019-02-15T03:56:51.771Z,4.77
2019-02-15T03:59:21.051Z,4.60
2019-02-15T04:01:50.235Z,4.13
2019-02-15T04:04:19.570Z,4.53
2019-02-15T04:06:48.909Z,4.30
2019-02-15T04:09:18.009Z,4.00
2019-02-15T04:11:49.707Z,4.30
2019-02-15T04:14:20.250Z,4.73
2019-02-15T04:16:49.686Z,4.57
2019-02-15T04:19:19.047Z,5.87
2019-02-15T04:21:48.348Z,4.97
2019-02-15T04:24:17.591Z,5.40
2019-02-15T04:26:46.787Z,5.40
2019-02-15T04:29:16.248Z,5.37
2019-02-15T04:31:45.507Z,5.17
2019-02-15T04:34:14.727Z,5.30
2019-02-15T04:36:43.928Z,4.70
2019-02-15T04:39:13.368Z,5.33
2019-02-15T04:41:42.490Z,5.10
2019-02-15T04:44:11.527Z,5.80
2019-02-15T04:46:41.016Z,5.93
2019-02-15T04:49:10.546Z,4.83
2019-02-15T04:51:39.627Z,5.43
2019-02-15T04:54:09.047Z,5.33
2019-02-15T04:56:38.172Z,5.63
2019-02-15T04:59:07.506Z,4.93
2019-02-15T05:01:37.029Z,5.00
2019-02-15T05:04:06.248Z,4.97
2019-02-15T05:06:35.867Z,5.53
2019-02-15T05:09:05.407Z,5.40
2019-02-15T05:11:34.548Z,5.53
2019-02-15T05:14:03.668Z,5.50
2019-02-15T05:16:32.687Z,4.90
2019-02-15T05:19:01.907Z,5.73
2019-02-15T05:21:31.146Z,5.90
2019-02-15T05:24:00.426Z,6.20
2019-02-15T05:26:30.106Z,5.23
2019-02-15T05:29:02.371Z,5.53
2019-02-15T05:31:36.315Z,5.87
2019-02-15T05:34:05.467Z,5.47
2019-02-15T05:36:34.587Z,6.00
2019-02-15T05:39:05.048Z,5.63
2019-02-15T05:41:34.266Z,5.53
2019-02-15T05:44:03.739Z,5.90
2019-02-15T05:46:32.809Z,5.37
2019-02-15T05:49:01.854Z,5.30
2019-02-15T05:51:31.146Z,6.43
2019-02-15T05:54:00.407Z,6.73
2019-02-15T05:56:31.127Z,5.97
2019-02-15T05:59:00.569Z,7.47
2019-02-15T06:01:31.391Z,7.57
2019-02-15T06:04:04.193Z,6.20
2019-02-15T06:06:33.348Z,5.77
2019-02-15T06:09:02.687Z,5.90
2019-02-15T06:11:32.031Z,5.97
2019-02-15T06:14:01.307Z,7.37
2019-02-15T06:16:30.427Z,6.80
2019-02-15T06:19:01.995Z,6.57
2019-02-15T06:21:31.036Z,7.33
2019-02-15T06:24:00.410Z,8.30
2019-02-15T06:26:29.446Z,8.13
2019-02-15T06:28:58.634Z,8.03
2019-02-15T06:31:27.990Z,8.33
2019-02-15T06:34:00.365Z,8.17
2019-02-15T06:36:31.127Z,7.20
2019-02-15T06:39:00.327Z,6.37
2019-02-15T06:41:29.227Z,6.73
2019-02-15T06:43:58.566Z,6.47
2019-02-15T06:46:28.246Z,7.77
2019-02-15T06:48:57.317Z,8.43
2019-02-15T06:51:26.349Z,8.27
2019-02-15T06:53:55.283Z,8.37
2019-02-15T06:56:27.300Z,8.30
2019-02-15T06:59:03.783Z,8.13
2019-02-15T07:01:34.268Z,7.50
2019-02-15T07:04:08.159Z,7.37
2019-02-15T07:06:37.089Z,8.23
2019-02-15T07:09:06.386Z,7.50
2019-02-15T07:11:35.408Z,13.70
2019-02-15T07:14:04.509Z,9.03
2019-02-15T07:16:33.491Z,8.50
2019-02-15T07:19:05.513Z,6.83
2019-02-15T07:21:34.669Z,6.53
2019-02-15T07:24:03.690Z,7.57
2019-02-15T07:26:32.829Z,7.70
2019-02-15T07:29:01.786Z,7.73
2019-02-15T07:31:30.988Z,7.20
2019-02-15T07:34:01.687Z,19.37
2019-02-15T07:36:30.969Z,16.10
2019-02-15T07:39:00.126Z,11.17
2019-02-15T07:41:29.107Z,7.73
2019-02-15T07:44:00.726Z,8.40
2019-02-15T07:46:32.809Z,7.70
2019-02-15T07:49:04.826Z,6.33
2019-02-15T07:51:34.006Z,7.33
2019-02-15T07:54:03.087Z,7.47
2019-02-15T07:56:32.406Z,7.67
2019-02-15T07:59:01.666Z,8.90
2019-02-15T08:01:33.486Z,8.87
2019-02-15T08:04:02.607Z,8.97
2019-02-15T08:06:31.766Z,10.17
2019-02-15T08:09:00.814Z,10.27
2019-02-15T08:11:30.128Z,9.93
2019-02-15T08:14:02.347Z,10.80
2019-02-15T08:16:31.349Z,10.60
2019-02-15T08:19:00.494Z,11.17
2019-02-15T08:21:29.449Z,11.83
2019-02-15T08:23:58.467Z,11.43
2019-02-15T08:26:27.596Z,10.93
2019-02-15T08:28:56.727Z,12.07
2019-02-15T08:31:25.833Z,11.23
2019-02-15T08:33:54.826Z,12.00
2019-02-15T08:36:26.970Z,10.90
2019-02-15T08:38:55.980Z,11.90
2019-02-15T08:41:25.075Z,10.80
2019-02-15T08:43:55.627Z,11.03
2019-02-15T08:46:26.248Z,11.23
2019-02-15T08:48:55.448Z,11.07
2019-02-15T08:51:24.371Z,10.83
2019-02-15T08:53:53.407Z,10.23
2019-02-15T08:56:23.983Z,8.90
2019-02-15T08:58:53.206Z,9.27
2019-02-15T09:01:22.646Z,9.07
2019-02-15T09:03:51.307Z,9.30
2019-02-15T09:06:23.141Z,8.53
2019-02-15T09:08:53.745Z,8.83
2019-02-15T09:11:26.891Z,8.63
2019-02-15T09:13:55.963Z,7.13
2019-02-15T09:16:25.043Z,7.67
2019-02-15T09:18:54.424Z,5.63
2019-02-15T09:21:23.532Z,4.17
2019-02-15T09:23:53.285Z,8.63
2019-02-15T09:26:22.464Z,7.53
2019-02-15T09:28:53.203Z,6.67
2019-02-15T09:31:22.345Z,5.97
2019-02-15T09:33:51.766Z,4.93
2019-02-15T09:36:21.184Z,4.60
2019-02-15T09:38:50.184Z,4.73
2019-02-15T09:41:19.444Z,4.43
2019-02-15T09:43:50.683Z,4.93
2019-02-15T09:46:20.428Z,4.90
2019-02-15T09:48:49.852Z,4.60
2019-02-15T09:51:21.485Z,5.00
2019-02-15T09:53:53.843Z,4.57
2019-02-15T09:56:23.091Z,3.87
2019-02-15T09:58:52.564Z,4.57
2019-02-15T10:01:21.551Z,4.60
2019-02-15T10:03:50.193Z,4.33
2019-02-15T10:06:19.251Z,4.70
2019-02-15T10:08:49.924Z,5.20
2019-02-15T10:11:18.913Z,4.43
2019-02-15T10:13:51.898Z,5.00
2019-02-15T10:16:28.616Z,4.53
2019-02-15T10:18:51.645Z,4.30
2019-02-15T10:21:20.546Z,4.17
2019-02-15T10:23:51.580Z,4.93
2019-02-15T10:26:20.673Z,3.70
2019-02-15T10:28:49.828Z,4.20
2019-02-15T10:31:21.512Z,3.90
2019-02-15T10:34:02.548Z,4.27
2019-02-15T10:36:34.428Z,4.20
2019-02-15T10:39:07.029Z,4.20
2019-02-15T10:41:35.954Z,3.83
2019-02-15T10:44:05.030Z,4.30
2019-02-15T10:46:37.772Z,4.40
2019-02-15T10:49:06.928Z,3.53
2019-02-15T10:51:39.118Z,3.50
2019-02-15T10:54:09.690Z,3.40
2019-02-15T10:56:44.512Z,4.23
2019-02-15T10:59:14.972Z,3.53
2019-02-15T11:01:45.365Z,4.30
2019-02-15T11:04:14.344Z,3.80
2019-02-15T11:06:43.275Z,4.17
2019-02-15T11:09:15.336Z,4.00
2019-02-15T11:11:44.183Z,4.10
2019-02-15T11:14:13.084Z,3.83
2019-02-15T11:16:47.244Z,4.60
2019-02-15T11:19:17.395Z,4.00
2019-02-15T11:21:47.764Z,4.10
2019-02-15T11:24:17.419Z,4.53
2019-02-15T11:26:46.345Z,5.27
2019-02-15T11:29:15.369Z,5.17
2019-02-15T11:31:44.469Z,4.57
2019-02-15T11:34:13.403Z,5.30
2019-02-15T11:36:42.323Z,5.60
2019-02-15T11:39:11.943Z,5.43
2019-02-15T11:41:42.608Z,5.70
2019-02-15T11:44:11.808Z,6.30
2019-02-15T11:46:42.326Z,6.57
2019-02-15T11:49:12.706Z,5.83
2019-02-15T11:51:41.905Z,6.47
2019-02-15T11:54:12.510Z,6.13
2019-02-15T11:56:43.292Z,6.33
2019-02-15T11:59:12.292Z,7.03
2019-02-15T12:01:41.195Z,6.93
2019-02-15T12:04:10.188Z,6.40
2019-02-15T12:06:39.368Z,6.70
2019-02-15T12:09:08.470Z,6.67
2019-02-15T12:11:37.526Z,6.90
2019-02-15T12:14:06.667Z,6.13
2019-02-15T12:16:35.650Z,6.53
2019-02-15T12:19:04.664Z,6.60
2019-02-15T12:21:33.701Z,6.60
2019-02-15T12:24:02.747Z,6.80
2019-02-15T12:26:31.667Z,6.53
2019-02-15T12:29:01.091Z,6.30
2019-02-15T12:31:30.206Z,6.70
2019-02-15T12:33:59.310Z,7.07
2019-02-15T12:36:28.274Z,6.50
2019-02-15T12:38:57.332Z,6.80
2019-02-15T12:41:26.434Z,6.57
2019-02-15T12:43:55.501Z,7.13
2019-02-15T12:46:24.473Z,6.03
2019-02-15T12:48:53.546Z,6.50
2019-02-15T12:51:22.626Z,6.83
2019-02-15T12:53:51.505Z,6.47
2019-02-15T12:56:20.413Z,6.73
2019-02-15T12:58:49.328Z,6.53
2019-02-15T13:01:18.218Z,6.77
2019-02-15T13:03:47.244Z,6.47
2019-02-15T13:06:16.242Z,6.70
2019-02-15T13:08:45.116Z,6.93
2019-02-15T13:11:14.011Z,6.97
2019-02-15T13:13:43.038Z,6.83
2019-02-15T13:16:12.187Z,6.50
2019-02-15T13:18:41.356Z,6.53
2019-02-15T13:21:10.376Z,6.90
2019-02-15T13:23:39.249Z,7.40
2019-02-15T13:26:09.015Z,6.90
2019-02-15T13:28:38.100Z,7.00
2019-02-15T13:31:06.981Z,7.60
2019-02-15T13:33:35.843Z,7.17
2019-02-15T13:36:05.148Z,7.23
2019-02-15T13:38:34.129Z,7.40
2019-02-15T13:41:03.184Z,7.37
2019-02-15T13:43:32.324Z,7.10
2019-02-15T13:46:01.373Z,6.83
2019-02-15T13:48:30.320Z,6.87
2019-02-15T13:50:59.399Z,6.97
2019-02-15T13:53:28.478Z,8.37
2019-02-15T13:55:57.394Z,7.33
2019-02-15T13:58:26.522Z,8.07
2019-02-15T14:00:55.694Z,7.80
2019-02-15T14:03:24.966Z,7.87
2019-02-15T14:05:54.135Z,7.50
2019-02-15T14:08:23.138Z,6.77
2019-02-15T14:10:52.133Z,6.40
2019-02-15T14:13:21.128Z,6.80
2019-02-15T14:15:50.027Z,6.53
2019-02-15T14:18:18.965Z,6.53
2019-02-15T14:20:47.883Z,6.97
2019-02-15T14:23:16.790Z,6.80
2019-02-15T14:25:45.733Z,6.37
2019-02-15T14:28:17.372Z,6.90
2019-02-15T14:30:47.551Z,6.43
2019-02-15T14:33:16.492Z,6.93
2019-02-15T14:35:45.456Z,6.20
2019-02-15T14:38:14.626Z,6.90
2019-02-15T14:40:43.603Z,6.53
2019-02-15T14:43:12.671Z,6.47
2019-02-15T14:45:41.615Z,6.87
2019-02-15T14:48:10.874Z,6.80
2019-02-15T14:50:39.876Z,6.83
2019-02-15T14:53:10.391Z,7.30
2019-02-15T14:55:39.388Z,7.07
2019-02-15T14:58:09.850Z,7.40
2019-02-15T15:00:40.399Z,6.53
2019-02-15T15:03:09.302Z,7.60
2019-02-15T15:05:38.400Z,6.87
2019-02-15T15:08:07.330Z,6.80
2019-02-15T15:10:36.228Z,6.90
2019-02-15T15:13:05.271Z,7.00
2019-02-15T15:15:34.264Z,6.40
2019-02-15T15:18:12.810Z,6.60
2019-02-15T15:20:33.847Z,6.93
2019-02-15T15:23:04.466Z,6.80
2019-02-15T15:25:36.115Z,7.27
2019-02-15T15:28:08.367Z,6.97
2019-02-15T15:30:38.749Z,7.30
2019-02-15T15:33:07.827Z,6.87
2019-02-15T15:35:36.810Z,7.00
2019-02-15T15:38:08.888Z,6.97
2019-02-15T15:40:40.973Z,7.50
2019-02-15T15:43:10.106Z,6.70
2019-02-15T15:45:43.694Z,6.90
2019-02-15T15:48:22.247Z,7.00
2019-02-15T15:50:44.567Z,6.97
2019-02-15T15:53:13.741Z,7.43
2019-02-15T15:55:42.634Z,6.63
2019-02-15T15:58:11.753Z,8.37
2019-02-15T16:00:43.363Z,7.07
2019-02-15T16:03:12.489Z,7.33
2019-02-15T16:05:41.377Z,7.20
2019-02-15T16:08:10.492Z,7.60
2019-02-15T16:10:42.467Z,7.63
2019-02-15T16:13:13.067Z,7.33
2019-02-15T16:15:44.809Z,7.07
2019-02-15T16:18:13.732Z,8.20
2019-02-15T16:20:42.900Z,7.57
2019-02-15T16:23:11.791Z,8.20
2019-02-15T16:25:40.893Z,7.03
2019-02-15T16:28:10.277Z,8.13
2019-02-15T16:30:39.585Z,7.73
2019-02-15T16:33:10.502Z,7.90
2019-02-15T16:35:41.798Z,7.57
2019-02-15T16:38:10.947Z,8.13
2019-02-15T16:40:40.016Z,8.20
2019-02-15T16:43:10.548Z,9.77
2019-02-15T16:45:41.208Z,10.27
2019-02-15T16:48:10.227Z,11.00
2019-02-15T16:50:43.080Z,10.00
2019-02-15T16:53:12.090Z,10.53
2019-02-15T16:55:44.167Z,10.57
2019-02-15T16:58:15.609Z,10.60
2019-02-15T17:00:46.424Z,10.40
2019-02-15T17:03:18.904Z,9.83
2019-02-15T17:05:47.884Z,10.87
2019-02-15T17:08:18.464Z,10.50
2019-02-15T17:10:47.604Z,10.80
2019-02-15T17:13:18.664Z,10.43
2019-02-15T17:15:47.643Z,9.77
2019-02-15T17:18:16.724Z,10.30
2019-02-15T17:20:45.804Z,10.27
2019-02-15T17:23:17.625Z,9.90
2019-02-15T17:25:47.747Z,10.23
2019-02-15T17:28:18.190Z,9.07
2019-02-15T17:30:50.384Z,10.33
2019-02-15T17:33:19.448Z,10.57
2019-02-15T17:35:50.067Z,13.37
2019-02-15T17:38:20.772Z,16.87
2019-02-15T17:40:51.383Z,14.00
2019-02-15T17:43:23.703Z,10.77
2019-02-15T17:45:52.767Z,10.43
2019-02-15T17:48:21.687Z,9.93
2019-02-15T17:50:50.666Z,9.67
2019-02-15T17:53:19.764Z,10.30
2019-02-15T17:55:49.104Z,12.23
2019-02-15T17:58:18.363Z,12.17
2019-02-15T18:00:47.426Z,11.40
2019-02-15T18:03:18.143Z,10.87
2019-02-15T18:05:47.204Z,9.23
2019-02-15T18:08:19.575Z,9.33
2019-02-15T18:10:48.784Z,9.70
2019-02-15T18:13:17.692Z,9.93
2019-02-15T18:15:46.864Z,9.83
2019-02-15T18:18:24.883Z,9.33
2019-02-15T18:20:53.844Z,10.30
2019-02-15T18:23:27.390Z,10.23
2019-02-15T18:25:56.344Z,10.63
2019-02-15T18:28:25.265Z,10.13
2019-02-15T18:30:54.216Z,11.67
2019-02-15T18:33:23.136Z,11.57
2019-02-15T18:35:52.069Z,12.50
2019-02-15T18:38:21.167Z,11.50
2019-02-15T18:40:50.104Z,13.40
2019-02-15T18:43:19.114Z,12.53
2019-02-15T18:45:48.154Z,12.90
2019-02-15T18:48:17.228Z,13.13
2019-02-15T18:50:46.305Z,12.87
2019-02-15T18:53:15.336Z,13.87
2019-02-15T18:55:44.453Z,13.20
2019-02-15T18:58:13.446Z,13.60
2019-02-15T19:00:42.632Z,14.17
2019-02-15T19:03:11.565Z,14.63
2019-02-15T19:05:40.663Z,14.77
2019-02-15T19:08:09.591Z,15.23
2019-02-15T19:10:38.745Z,15.13
2019-02-15T19:13:07.704Z,15.13
2019-02-15T19:15:36.623Z,15.83
2019-02-15T19:18:05.911Z,14.97
2019-02-15T19:20:36.394Z,13.20
2019-02-15T19:23:05.499Z,24.80
2019-02-15T19:25:37.226Z,22.47
2019-02-15T19:28:06.130Z,16.40
2019-02-15T19:30:36.802Z,15.67
2019-02-15T19:33:06.203Z,15.23
2019-02-15T19:35:35.183Z,14.43
2019-02-15T19:38:04.352Z,14.17
2019-02-15T19:40:33.271Z,15.00
2019-02-15T19:43:08.336Z,13.90
2019-02-15T19:45:39.449Z,13.10
2019-02-15T19:48:08.468Z,13.00
2019-02-15T19:50:37.332Z,13.00
2019-02-15T19:53:07.702Z,13.20
2019-02-15T19:55:41.096Z,12.83
2019-02-15T19:58:10.113Z,13.23
2019-02-15T20:00:39.002Z,13.93
2019-02-15T20:03:09.536Z,13.23
2019-02-15T20:05:38.548Z,14.73
2019-02-15T20:08:10.940Z,14.80
2019-02-15T20:10:42.448Z,16.37
2019-02-15T20:13:11.445Z,16.57
2019-02-15T20:15:40.583Z,16.07
2019-02-15T20:18:09.476Z,15.00
2019-02-15T20:20:39.964Z,14.50
2019-02-15T20:23:08.863Z,15.23
2019-02-15T20:25:41.083Z,13.53
2019-02-15T20:28:14.043Z,14.00
2019-02-15T20:30:42.263Z,14.87
2019-02-15T20:33:15.725Z,14.53
2019-02-15T20:35:44.715Z,13.30
2019-02-15T20:38:13.857Z,13.97
2019-02-15T20:40:42.729Z,15.33
2019-02-15T20:43:13.177Z,14.97
2019-02-15T20:45:42.137Z,15.50
2019-02-15T20:48:13.603Z,16.00
2019-02-15T20:50:42.692Z,15.83
2019-02-15T20:53:13.225Z,17.77
2019-02-15T20:55:43.774Z,18.73
2019-02-15T20:58:14.187Z,17.90
2019-02-15T21:00:45.916Z,17.67
2019-02-15T21:03:17.644Z,18.73
2019-02-15T21:05:47.590Z,19.03
2019-02-15T21:08:17.949Z,18.17
2019-02-15T21:10:54.822Z,18.40
2019-02-15T21:13:20.455Z,18.27
2019-02-15T21:15:49.788Z,18.90
2019-02-15T21:18:20.274Z,18.23
2019-02-15T21:20:50.823Z,18.33
2019-02-15T21:23:24.324Z,17.77
2019-02-15T21:25:55.883Z,17.53
2019-02-15T21:28:25.883Z,17.63
2019-02-15T21:30:54.805Z,18.53
2019-02-15T21:33:23.744Z,18.33
2019-02-15T21:35:55.851Z,18.17
2019-02-15T21:38:27.607Z,17.77
2019-02-15T21:40:56.550Z,18.70
2019-02-15T21:43:25.575Z,18.50
2019-02-15T21:45:54.464Z,18.10
2019-02-15T21:48:23.491Z,18.60
2019-02-15T21:50:52.444Z,18.87
2019-02-15T21:53:21.745Z,18.17
2019-02-15T21:55:50.714Z,19.43
2019-02-15T21:58:24.524Z,18.13
2019-02-15T22:00:53.794Z,18.90
2019-02-15T22:03:22.751Z,18.90
2019-02-15T22:05:51.916Z,19.70
2019-02-15T22:08:20.940Z,18.73
2019-02-15T22:10:49.849Z,18.70
2019-02-15T22:13:21.803Z,18.70
2019-02-15T22:15:50.730Z,18.33
2019-02-15T22:18:19.703Z,19.97
2019-02-15T22:20:48.644Z,19.47
2019-02-15T22:23:17.664Z,18.57
2019-02-15T22:25:46.644Z,19.37
2019-02-15T22:28:15.624Z,20.20
2019-02-15T22:30:44.564Z,19.13
2019-02-15T22:33:13.523Z,20.33
2019-02-15T22:35:42.466Z,19.83
2019-02-15T22:38:14.364Z,18.80
2019-02-15T22:40:44.866Z,18.50
2019-02-15T22:43:22.944Z,19.77
2019-02-15T22:45:52.023Z,19.93
2019-02-15T22:48:21.043Z,19.03
2019-02-15T22:50:49.992Z,19.33
2019-02-15T22:53:19.127Z,17.60
2019-02-15T22:55:48.164Z,19.40
2019-02-15T22:58:17.065Z,18.47
2019-02-15T23:00:56.209Z,19.37
2019-02-15T23:03:27.324Z,19.37
2019-02-15T23:05:56.486Z,18.50
2019-02-15T23:08:25.465Z,17.40
2019-02-15T23:10:54.504Z,19.03
2019-02-15T23:13:23.663Z,19.63
2019-02-15T23:15:52.765Z,19.57
2019-02-15T23:18:21.863Z,19.20
2019-02-15T23:20:50.845Z,19.30
2019-02-15T23:23:19.783Z,19.80
2019-02-15T23:25:49.204Z,19.53
2019-02-15T23:28:18.964Z,19.00
2019-02-15T23:30:48.087Z,19.33
2019-02-15T23:33:17.103Z,20.60
2019-02-15T23:35:46.203Z,19.53
2019-02-15T23:38:15.243Z,19.60
2019-02-15T23:40:44.183Z,19.13
2019-02-15T23:43:13.235Z,18.83
2019-02-15T23:45:42.274Z,16.10
2019-02-15T23:48:11.344Z,16.50
2019-02-15T23:50:40.726Z,16.60
2019-02-15T23:53:09.864Z,16.33
2019-02-15T23:55:39.064Z,16.33
2019-02-15T23:58:08.443Z,16.03
